Warning: Javascript must be enabled to use all the features on this page!


Page Loading - Please Wait...

Click to hideNews Bulletins
  • The issue impacting the delivery of satellite data transmissions in the western United States has been resolved. Current data for impacted locations are now accessible from USGS web portals. The data to fill any resultant gaps in water records will be downloaded from field equipment for manual upload following the next scheduled field visit.
  • Explore the NEW USGS National Water Dashboard interactive map to access real-time water data from over 13,500 stations nationwide.
  • Full News RSS icon

Streamflow Measurements for the Nation


USGS 05380900 POPLAR RIVER NEAR OWEN, WI


Clark County, Wisconsin
Hydrologic Unit Code 07040007
Latitude  44°53'10", Longitude  90°34'17" NAD27
Drainage area 157  square miles
Output formats
HTML table with channel data
HTML table without channel data
Tab-separated data with channel data
Tab-separated data without channel data
Graph of data
Reselect output format
Meas.
Number
  Date       Time Time
Datum
Measurement
Used?
  Who Measuring
Agency
Stream
flow
(ft3/s)
Gage
Height
(ft)
GH
Change
(ft)
Meas.
Duration
(hr)
Meas.
Rated
  Control Flow
Adjust.
Code
 
712020-06-10 14:20:52CDTYesljsUSGS235014.540.000.22FairDebrisModerateNONE
702016-09-24 17:41:58CDTYesltwUSGS61510.47-0.100.20FairDebrisLightNONE
692016-09-23 15:12:51CDTYesltwUSGS188013.41-0.100.20FairDebrisModerateNONE
682016-09-21 10:19CDTYesltwUSGS39.07.340.000.50PoorClearNONE
672016-03-16 13:28:15CDTYesljs/ltwUSGS448016.30 FairClearNONE
662013-04-23 13:20:30CDTYespdf,jgsUSGS230013.850.051.00FairClearNONE
652010-09-23 11:46CDTYesedd/dbsUSGS222014.170.050.10GoodClearNONE
642008-04-06 19:12CDTYesPCR/EDDUSGS297015.05-0.020.40FairClearNONE
632005-03-31 14:00CSTYesTJPUSGS225013.93-0.080.50GoodClearNONE
622005-03-30 15:35CSTYesTJPUSGS302015.87-0.060.70FairIceShoreNONE
612001-04-12 -- ----YesHLH/JARUSGS425017.04-0.060.70FairClearNONE
321996-10-09 19:00CDTYesAAAUSGS5.11 Fair NONE
601993-06-09 -- ----YesBMEUSGS287015.02-0.091.00Fair NONE
591975-04-14 -- ----YesJEHUSGS173012.920.071.40GoodClearNONE
581974-04-08 -- ----YesRHBUSGS417015.370.181.00FairClearNONE
571970-08-10 19:00CDTYesGJAUSGS5.217.15 Fair NONE
561970-07-27 19:00CDTYesAAAUSGS10.5 Fair NONE
551970-06-10 19:00CDTYesAAAUSGS15.7 Fair NONE
541970-05-07 19:00CDTYesAAAUSGS19.1 Fair NONE
531970-04-08 -- ----YesRHBUSGS120011.360.000.80GoodClearNONE
521969-08-26 19:00CDTYesRJVUSGS3.567.74 Fair NONE
511969-07-07 19:00CDTYesAAAUSGS31.8 Fair NONE
501969-06-12 19:00CDTYesAAAUSGS105 Fair NONE
491969-05-19 19:00CDTYesAAAUSGS99.6 Fair NONE
481969-04-21 18:00CSTYesAAAUSGS1188.51 Fair NONE
471968-11-07 18:00CSTYesAAAUSGS29.6 Fair NONE
461968-10-23 19:00CDTYesAAAUSGS19.8 Fair NONE
451968-10-21 19:00CDTYesAAAUSGS21.2 Fair NONE
441968-09-25 19:00CDTYesAAAUSGS31.6 Fair NONE
431968-08-19 19:00CDTYesAAAUSGS235 Fair NONE
421968-06-10 19:00CDTYesAAAUSGS216 Fair NONE
411968-05-07 19:00CDTYesAAAUSGS22.3 Fair NONE
401968-03-28 18:00CSTYesAAAUSGS4.62 Fair NONE
391967-10-05 19:00CDTYesAAAUSGS3.86 Fair NONE
381967-08-22 19:00CDTYesAAAUSGS4.67 Fair NONE
371967-07-25 19:00CDTYesAAAUSGS16.7 Fair NONE
361967-06-11 19:00CDTYesAAAUSGS93.3 Fair NONE
351967-04-30 19:00CDTYesAAAUSGS30.2 Fair NONE
341967-03-30 18:00CSTYesAAAUSGS7280 Fair NONE
331966-11-06 18:00CSTYesAAAUSGS9.07 Fair NONE
311966-09-05 19:00CDTYesAAAUSGS42.3 Fair NONE
301966-07-31 19:00CDTYesAAAUSGS10.0 Fair NONE
291966-06-26 19:00CDTYesAAAUSGS5.89 Fair NONE
281966-05-22 19:00CDTYesAAAUSGS29.4 Fair NONE
271966-04-18 18:00CSTYesAAAUSGS185 Fair NONE
261965-11-14 18:00CSTYesAAAUSGS121 Fair NONE
251965-10-17 19:00CDTYesAAAUSGS32.6 Fair NONE
241965-09-20 19:00CDTYesAAAUSGS562 Fair NONE
231965-08-16 19:00CDTYesAAAUSGS7.96 Fair NONE
221965-07-11 19:00CDTYesAAAUSGS48.1 Fair NONE
211965-06-13 19:00CDTYesAAAUSGS17.4 Fair NONE
201965-04-25 19:00CDTYesAAAUSGS1380 Fair NONE
191964-11-02 18:00CSTYesAAAUSGS11.2 Fair NONE
181964-09-27 19:00CDTYesAAAUSGS139 Fair NONE
171964-09-02 19:00CDTYesAAAUSGS2580 Fair NONE
161964-08-26 19:00CDTYesAAAUSGS1.16 Fair NONE
151964-08-04 19:00CDTYesAAAUSGS1.95 Fair NONE
141964-07-20 19:00CDTYesAAAUSGS7.83 Fair NONE
131963-11-06 18:00CSTYesAAAUSGS7.51 Fair NONE
121963-10-06 19:00CDTYesAAAUSGS5.30 Fair NONE
111963-07-08 19:00CDTYesAAAUSGS3.74 Fair NONE
101963-05-22 19:00CDTYesAAAUSGS36.0 Fair NONE
91962-10-29 18:00CSTYesAAAUSGS17.8 Fair NONE
81962-08-21 19:00CDTYesAAAUSGS6.11 Fair NONE
71961-08-14 19:00CDTYesAAAUSGS13.8 Fair NONE
61958-06-04 19:00CDTYesAAAUSGS7160 Fair NONE
51958-06-01 19:00CDTYesAAAUSGS577 Fair NONE
41957-07-07 19:00CDTYesAAAUSGS1360 Fair NONE
31956-04-03 18:00CSTYesAAAUSGS5110 Fair NONE
21951-04-09 18:00CSTYesAAAUSGS2600 Fair NONE
11950-04-12 18:00CSTYesAAAUSGS451 Fair NONE